sensor_id;sensor_type;location;lat;lon;timestamp;temperature;humidity
54938;DHT22;52756;52.826;6.214;2023-06-22T00:00:52;20.50;63.40
54938;DHT22;52756;52.826;6.214;2023-06-22T00:03:19;20.40;63.40
54938;DHT22;52756;52.826;6.214;2023-06-22T00:05:46;20.50;63.50
54938;DHT22;52756;52.826;6.214;2023-06-22T00:08:12;20.40;63.40
54938;DHT22;52756;52.826;6.214;2023-06-22T00:10:38;20.40;63.50
54938;DHT22;52756;52.826;6.214;2023-06-22T00:13:06;20.40;63.60
54938;DHT22;52756;52.826;6.214;2023-06-22T00:15:32;20.40;63.60
54938;DHT22;52756;52.826;6.214;2023-06-22T00:17:57;20.40;63.40
54938;DHT22;52756;52.826;6.214;2023-06-22T00:20:24;20.40;63.50
54938;DHT22;52756;52.826;6.214;2023-06-22T00:22:54;20.30;63.40
54938;DHT22;52756;52.826;6.214;2023-06-22T00:25:20;20.30;63.40
54938;DHT22;52756;52.826;6.214;2023-06-22T00:27:46;20.30;63.50
54938;DHT22;52756;52.826;6.214;2023-06-22T00:30:11;20.30;63.70
54938;DHT22;52756;52.826;6.214;2023-06-22T00:32:37;20.20;63.60
54938;DHT22;52756;52.826;6.214;2023-06-22T00:35:03;20.20;63.50
54938;DHT22;52756;52.826;6.214;2023-06-22T00:37:29;20.20;63.50
54938;DHT22;52756;52.826;6.214;2023-06-22T00:39:58;20.20;63.60
54938;DHT22;52756;52.826;6.214;2023-06-22T00:42:24;20.20;63.80
54938;DHT22;52756;52.826;6.214;2023-06-22T00:44:50;20.20;63.70
54938;DHT22;52756;52.826;6.214;2023-06-22T00:47:17;20.20;63.70
54938;DHT22;52756;52.826;6.214;2023-06-22T00:49:43;20.20;63.80
54938;DHT22;52756;52.826;6.214;2023-06-22T00:52:10;20.10;63.70
54938;DHT22;52756;52.826;6.214;2023-06-22T00:54:40;20.10;63.60
54938;DHT22;52756;52.826;6.214;2023-06-22T00:57:12;20.10;63.60
54938;DHT22;52756;52.826;6.214;2023-06-22T00:59:45;20.10;63.70
54938;DHT22;52756;52.826;6.214;2023-06-22T01:02:13;20.00;63.70
54938;DHT22;52756;52.826;6.214;2023-06-22T01:04:39;20.00;63.90
54938;DHT22;52756;52.826;6.214;2023-06-22T01:10:08;19.90;64.70
54938;DHT22;52756;52.826;6.214;2023-06-22T01:12:38;19.90;64.90
54938;DHT22;52756;52.826;6.214;2023-06-22T01:15:15;19.80;64.80
54938;DHT22;52756;52.826;6.214;2023-06-22T01:17:45;19.70;65.10
54938;DHT22;52756;52.826;6.214;2023-06-22T01:20:15;19.70;65.30
54938;DHT22;52756;52.826;6.214;2023-06-22T01:23:05;19.60;65.50
54938;DHT22;52756;52.826;6.214;2023-06-22T01:25:46;19.60;65.80
54938;DHT22;52756;52.826;6.214;2023-06-22T01:28:39;19.50;66.40
54938;DHT22;52756;52.826;6.214;2023-06-22T01:31:08;19.50;66.70
54938;DHT22;52756;52.826;6.214;2023-06-22T01:33:37;19.40;66.20
54938;DHT22;52756;52.826;6.214;2023-06-22T01:36:05;19.30;66.70
54938;DHT22;52756;52.826;6.214;2023-06-22T01:38:33;19.30;67.00
54938;DHT22;52756;52.826;6.214;2023-06-22T01:40:59;19.30;67.10
54938;DHT22;52756;52.826;6.214;2023-06-22T01:43:27;19.30;67.30
54938;DHT22;52756;52.826;6.214;2023-06-22T01:45:59;19.20;67.70
54938;DHT22;52756;52.826;6.214;2023-06-22T01:48:25;19.20;68.00
54938;DHT22;52756;52.826;6.214;2023-06-22T01:50:52;19.20;68.20
54938;DHT22;52756;52.826;6.214;2023-06-22T01:53:21;19.20;68.40
54938;DHT22;52756;52.826;6.214;2023-06-22T01:55:47;19.20;68.50
54938;DHT22;52756;52.826;6.214;2023-06-22T01:58:13;19.10;68.60
54938;DHT22;52756;52.826;6.214;2023-06-22T02:00:41;19.10;68.50
54938;DHT22;52756;52.826;6.214;2023-06-22T02:03:14;19.10;68.60
54938;DHT22;52756;52.826;6.214;2023-06-22T02:05:50;19.10;68.70
54938;DHT22;52756;52.826;6.214;2023-06-22T02:08:25;19.10;68.30
54938;DHT22;52756;52.826;6.214;2023-06-22T02:10:51;19.10;68.40
54938;DHT22;52756;52.826;6.214;2023-06-22T02:13:18;19.10;68.30
54938;DHT22;52756;52.826;6.214;2023-06-22T02:15:46;19.10;68.20
54938;DHT22;52756;52.826;6.214;2023-06-22T02:18:12;19.10;68.10
54938;DHT22;52756;52.826;6.214;2023-06-22T02:20:39;19.10;68.00
54938;DHT22;52756;52.826;6.214;2023-06-22T02:23:06;19.10;67.90
54938;DHT22;52756;52.826;6.214;2023-06-22T02:25:33;19.10;67.70
54938;DHT22;52756;52.826;6.214;2023-06-22T02:27:59;19.10;67.60
54938;DHT22;52756;52.826;6.214;2023-06-22T02:30:24;19.10;67.60
54938;DHT22;52756;52.826;6.214;2023-06-22T02:32:50;19.10;67.60
54938;DHT22;52756;52.826;6.214;2023-06-22T02:35:27;19.10;67.50
54938;DHT22;52756;52.826;6.214;2023-06-22T02:37:58;19.10;67.50
54938;DHT22;52756;52.826;6.214;2023-06-22T02:40:25;19.10;67.40
54938;DHT22;52756;52.826;6.214;2023-06-22T02:42:51;19.10;67.40
54938;DHT22;52756;52.826;6.214;2023-06-22T02:45:16;19.00;67.40
54938;DHT22;52756;52.826;6.214;2023-06-22T02:47:42;19.10;67.40
54938;DHT22;52756;52.826;6.214;2023-06-22T02:50:08;19.00;67.40
54938;DHT22;52756;52.826;6.214;2023-06-22T02:52:34;19.00;67.50
54938;DHT22;52756;52.826;6.214;2023-06-22T02:55:00;19.00;67.40
54938;DHT22;52756;52.826;6.214;2023-06-22T02:57:25;19.00;67.90
54938;DHT22;52756;52.826;6.214;2023-06-22T02:59:51;19.00;67.60
54938;DHT22;52756;52.826;6.214;2023-06-22T03:02:17;18.90;67.50
54938;DHT22;52756;52.826;6.214;2023-06-22T03:04:44;18.90;67.60
54938;DHT22;52756;52.826;6.214;2023-06-22T03:07:09;18.90;67.60
54938;DHT22;52756;52.826;6.214;2023-06-22T03:09:35;18.90;67.60
54938;DHT22;52756;52.826;6.214;2023-06-22T03:12:01;18.90;67.60
54938;DHT22;52756;52.826;6.214;2023-06-22T03:14:27;18.90;67.70
54938;DHT22;52756;52.826;6.214;2023-06-22T03:16:53;18.80;67.60
54938;DHT22;52756;52.826;6.214;2023-06-22T03:19:19;18.80;67.80
54938;DHT22;52756;52.826;6.214;2023-06-22T03:21:46;18.80;67.90
54938;DHT22;52756;52.826;6.214;2023-06-22T03:24:12;18.80;68.10
54938;DHT22;52756;52.826;6.214;2023-06-22T03:26:38;18.80;68.00
54938;DHT22;52756;52.826;6.214;2023-06-22T03:29:04;18.80;67.90
54938;DHT22;52756;52.826;6.214;2023-06-22T03:31:29;18.80;67.90
54938;DHT22;52756;52.826;6.214;2023-06-22T03:33:55;18.80;68.00
54938;DHT22;52756;52.826;6.214;2023-06-22T03:36:21;18.80;67.90
54938;DHT22;52756;52.826;6.214;2023-06-22T03:38:48;18.80;67.90
54938;DHT22;52756;52.826;6.214;2023-06-22T03:41:14;18.70;67.80
54938;DHT22;52756;52.826;6.214;2023-06-22T03:43:40;18.80;67.90
54938;DHT22;52756;52.826;6.214;2023-06-22T03:46:06;18.70;67.90
54938;DHT22;52756;52.826;6.214;2023-06-22T03:48:32;18.80;68.00
54938;DHT22;52756;52.826;6.214;2023-06-22T03:50:59;18.70;68.10
54938;DHT22;52756;52.826;6.214;2023-06-22T03:53:25;18.70;68.50
54938;DHT22;52756;52.826;6.214;2023-06-22T03:55:51;18.70;68.60
54938;DHT22;52756;52.826;6.214;2023-06-22T03:58:18;18.70;68.90
54938;DHT22;52756;52.826;6.214;2023-06-22T04:00:49;18.70;69.00
54938;DHT22;52756;52.826;6.214;2023-06-22T04:03:15;18.60;68.80
54938;DHT22;52756;52.826;6.214;2023-06-22T04:05:41;18.60;68.90
54938;DHT22;52756;52.826;6.214;2023-06-22T04:08:07;18.60;68.90
54938;DHT22;52756;52.826;6.214;2023-06-22T04:10:33;18.60;69.10
54938;DHT22;52756;52.826;6.214;2023-06-22T04:13:00;18.60;69.20
54938;DHT22;52756;52.826;6.214;2023-06-22T04:15:26;18.50;69.20
54938;DHT22;52756;52.826;6.214;2023-06-22T04:17:51;18.60;69.40
54938;DHT22;52756;52.826;6.214;2023-06-22T04:20:17;18.60;69.30
54938;DHT22;52756;52.826;6.214;2023-06-22T04:22:43;18.50;69.30
54938;DHT22;52756;52.826;6.214;2023-06-22T04:25:08;18.50;69.40
54938;DHT22;52756;52.826;6.214;2023-06-22T04:27:34;18.50;69.30
54938;DHT22;52756;52.826;6.214;2023-06-22T04:30:07;18.50;69.40
54938;DHT22;52756;52.826;6.214;2023-06-22T04:32:34;18.50;69.40
54938;DHT22;52756;52.826;6.214;2023-06-22T04:35:02;18.50;69.40
54938;DHT22;52756;52.826;6.214;2023-06-22T04:37:30;18.50;69.40
54938;DHT22;52756;52.826;6.214;2023-06-22T04:39:56;18.50;69.60
54938;DHT22;52756;52.826;6.214;2023-06-22T04:42:22;18.50;69.70
54938;DHT22;52756;52.826;6.214;2023-06-22T04:44:48;18.50;70.10
54938;DHT22;52756;52.826;6.214;2023-06-22T04:47:13;18.50;70.50
54938;DHT22;52756;52.826;6.214;2023-06-22T04:49:39;18.50;71.00
54938;DHT22;52756;52.826;6.214;2023-06-22T04:52:11;18.40;71.20
54938;DHT22;52756;52.826;6.214;2023-06-22T04:54:38;18.40;71.60
54938;DHT22;52756;52.826;6.214;2023-06-22T04:57:06;18.40;71.90
54938;DHT22;52756;52.826;6.214;2023-06-22T04:59:35;18.40;72.20
54938;DHT22;52756;52.826;6.214;2023-06-22T05:02:02;18.40;72.40
54938;DHT22;52756;52.826;6.214;2023-06-22T05:04:29;18.40;72.80
54938;DHT22;52756;52.826;6.214;2023-06-22T05:07:02;18.40;73.30
54938;DHT22;52756;52.826;6.214;2023-06-22T05:09:28;18.40;73.60
54938;DHT22;52756;52.826;6.214;2023-06-22T05:11:54;18.50;73.80
54938;DHT22;52756;52.826;6.214;2023-06-22T05:14:22;18.50;74.20
54938;DHT22;52756;52.826;6.214;2023-06-22T05:16:48;18.60;74.80
54938;DHT22;52756;52.826;6.214;2023-06-22T05:19:14;18.70;75.20
54938;DHT22;52756;52.826;6.214;2023-06-22T05:21:40;18.90;75.40
54938;DHT22;52756;52.826;6.214;2023-06-22T05:24:06;19.00;75.50
54938;DHT22;52756;52.826;6.214;2023-06-22T05:26:33;19.20;75.30
54938;DHT22;52756;52.826;6.214;2023-06-22T05:29:00;19.40;74.90
54938;DHT22;52756;52.826;6.214;2023-06-22T05:31:26;19.70;74.70
54938;DHT22;52756;52.826;6.214;2023-06-22T05:33:54;19.90;74.20
54938;DHT22;52756;52.826;6.214;2023-06-22T05:36:20;20.10;73.80
54938;DHT22;52756;52.826;6.214;2023-06-22T05:38:47;20.30;73.50
54938;DHT22;52756;52.826;6.214;2023-06-22T05:41:13;20.60;73.30
54938;DHT22;52756;52.826;6.214;2023-06-22T05:43:39;20.80;72.50
54938;DHT22;52756;52.826;6.214;2023-06-22T05:46:05;21.00;72.20
54938;DHT22;52756;52.826;6.214;2023-06-22T05:48:31;21.30;71.40
54938;DHT22;52756;52.826;6.214;2023-06-22T05:50:57;21.60;70.50
54938;DHT22;52756;52.826;6.214;2023-06-22T05:53:23;21.80;70.00
54938;DHT22;52756;52.826;6.214;2023-06-22T05:55:49;22.00;69.50
54938;DHT22;52756;52.826;6.214;2023-06-22T05:58:14;22.20;68.90
54938;DHT22;52756;52.826;6.214;2023-06-22T06:00:41;22.40;68.10
54938;DHT22;52756;52.826;6.214;2023-06-22T06:03:08;22.50;67.70
54938;DHT22;52756;52.826;6.214;2023-06-22T06:05:34;22.70;67.00
54938;DHT22;52756;52.826;6.214;2023-06-22T06:08:01;22.80;66.70
54938;DHT22;52756;52.826;6.214;2023-06-22T06:10:27;22.90;66.50
54938;DHT22;52756;52.826;6.214;2023-06-22T06:12:55;23.00;66.20
54938;DHT22;52756;52.826;6.214;2023-06-22T06:15:21;23.10;65.90
54938;DHT22;52756;52.826;6.214;2023-06-22T06:17:48;23.20;65.30
54938;DHT22;52756;52.826;6.214;2023-06-22T06:20:15;23.30;65.60
54938;DHT22;52756;52.826;6.214;2023-06-22T06:22:41;23.50;64.40
54938;DHT22;52756;52.826;6.214;2023-06-22T06:25:08;23.50;63.60
54938;DHT22;52756;52.826;6.214;2023-06-22T06:27:34;23.50;63.90
54938;DHT22;52756;52.826;6.214;2023-06-22T06:29:59;23.50;64.00
54938;DHT22;52756;52.826;6.214;2023-06-22T06:32:25;23.70;64.10
54938;DHT22;52756;52.826;6.214;2023-06-22T06:34:51;23.80;63.70
54938;DHT22;52756;52.826;6.214;2023-06-22T06:37:17;24.00;63.50
54938;DHT22;52756;52.826;6.214;2023-06-22T06:39:44;24.00;62.30
54938;DHT22;52756;52.826;6.214;2023-06-22T06:42:09;24.00;61.80
54938;DHT22;52756;52.826;6.214;2023-06-22T06:44:36;24.00;62.30
54938;DHT22;52756;52.826;6.214;2023-06-22T06:47:04;24.00;60.70
54938;DHT22;52756;52.826;6.214;2023-06-22T06:49:30;23.90;60.00
54938;DHT22;52756;52.826;6.214;2023-06-22T06:51:55;23.80;59.70
54938;DHT22;52756;52.826;6.214;2023-06-22T06:54:21;23.90;59.70
54938;DHT22;52756;52.826;6.214;2023-06-22T06:56:47;23.90;59.80
54938;DHT22;52756;52.826;6.214;2023-06-22T06:59:14;23.90;59.90
54938;DHT22;52756;52.826;6.214;2023-06-22T07:01:43;23.90;59.80
54938;DHT22;52756;52.826;6.214;2023-06-22T07:04:10;23.90;59.40
54938;DHT22;52756;52.826;6.214;2023-06-22T07:06:36;23.90;59.20
54938;DHT22;52756;52.826;6.214;2023-06-22T07:09:03;23.90;59.30
54938;DHT22;52756;52.826;6.214;2023-06-22T07:11:34;23.90;59.40
54938;DHT22;52756;52.826;6.214;2023-06-22T07:14:01;24.00;59.00
54938;DHT22;52756;52.826;6.214;2023-06-22T07:16:27;24.00;59.00
54938;DHT22;52756;52.826;6.214;2023-06-22T07:18:54;23.90;59.00
54938;DHT22;52756;52.826;6.214;2023-06-22T07:21:19;24.00;58.80
54938;DHT22;52756;52.826;6.214;2023-06-22T07:23:45;23.90;58.80
54938;DHT22;52756;52.826;6.214;2023-06-22T07:26:11;23.90;59.30
54938;DHT22;52756;52.826;6.214;2023-06-22T07:28:38;23.90;59.30
54938;DHT22;52756;52.826;6.214;2023-06-22T07:31:06;23.90;59.10
54938;DHT22;52756;52.826;6.214;2023-06-22T07:33:32;24.00;59.30
54938;DHT22;52756;52.826;6.214;2023-06-22T07:35:57;24.00;58.80
54938;DHT22;52756;52.826;6.214;2023-06-22T07:38:23;23.90;58.60
54938;DHT22;52756;52.826;6.214;2023-06-22T07:40:49;23.90;59.30
54938;DHT22;52756;52.826;6.214;2023-06-22T07:43:16;24.00;59.90
54938;DHT22;52756;52.826;6.214;2023-06-22T07:45:51;24.10;59.70
54938;DHT22;52756;52.826;6.214;2023-06-22T07:48:21;24.30;59.30
54938;DHT22;52756;52.826;6.214;2023-06-22T07:50:48;24.40;58.90
54938;DHT22;52756;52.826;6.214;2023-06-22T07:53:13;24.50;59.50
54938;DHT22;52756;52.826;6.214;2023-06-22T07:55:39;24.60;59.00
54938;DHT22;52756;52.826;6.214;2023-06-22T07:58:05;24.80;58.60
54938;DHT22;52756;52.826;6.214;2023-06-22T08:00:30;25.00;58.50
54938;DHT22;52756;52.826;6.214;2023-06-22T08:02:56;25.20;58.00
54938;DHT22;52756;52.826;6.214;2023-06-22T08:05:22;25.40;57.80
54938;DHT22;52756;52.826;6.214;2023-06-22T08:07:48;25.60;57.20
54938;DHT22;52756;52.826;6.214;2023-06-22T08:10:14;25.70;56.90
54938;DHT22;52756;52.826;6.214;2023-06-22T08:12:40;25.90;56.90
54938;DHT22;52756;52.826;6.214;2023-06-22T08:15:06;26.00;56.60
54938;DHT22;52756;52.826;6.214;2023-06-22T08:17:33;26.20;56.50
54938;DHT22;52756;52.826;6.214;2023-06-22T08:19:59;26.40;55.40
54938;DHT22;52756;52.826;6.214;2023-06-22T08:22:25;26.40;55.20
54938;DHT22;52756;52.826;6.214;2023-06-22T08:24:50;26.60;55.00
54938;DHT22;52756;52.826;6.214;2023-06-22T08:27:16;26.60;55.10
54938;DHT22;52756;52.826;6.214;2023-06-22T08:29:43;26.80;54.70
54938;DHT22;52756;52.826;6.214;2023-06-22T08:32:11;26.90;54.00
54938;DHT22;52756;52.826;6.214;2023-06-22T08:34:37;27.10;53.30
54938;DHT22;52756;52.826;6.214;2023-06-22T08:37:08;27.20;53.60
54938;DHT22;52756;52.826;6.214;2023-06-22T08:39:34;27.40;53.20
54938;DHT22;52756;52.826;6.214;2023-06-22T08:42:00;27.60;52.50
54938;DHT22;52756;52.826;6.214;2023-06-22T08:44:26;27.70;52.70
54938;DHT22;52756;52.826;6.214;2023-06-22T08:46:51;27.80;52.20
54938;DHT22;52756;52.826;6.214;2023-06-22T08:49:17;27.80;51.80
54938;DHT22;52756;52.826;6.214;2023-06-22T08:51:43;27.80;51.20
54938;DHT22;52756;52.826;6.214;2023-06-22T08:54:11;27.80;50.70
54938;DHT22;52756;52.826;6.214;2023-06-22T08:56:36;27.80;50.40
54938;DHT22;52756;52.826;6.214;2023-06-22T08:59:02;27.70;51.10
54938;DHT22;52756;52.826;6.214;2023-06-22T09:01:28;27.70;51.10
54938;DHT22;52756;52.826;6.214;2023-06-22T09:03:53;27.80;51.70
54938;DHT22;52756;52.826;6.214;2023-06-22T09:06:23;27.80;51.30
54938;DHT22;52756;52.826;6.214;2023-06-22T09:08:50;28.00;51.30
54938;DHT22;52756;52.826;6.214;2023-06-22T09:11:15;28.10;51.10
54938;DHT22;52756;52.826;6.214;2023-06-22T09:13:41;28.20;50.60
54938;DHT22;52756;52.826;6.214;2023-06-22T09:16:07;28.20;49.70
54938;DHT22;52756;52.826;6.214;2023-06-22T09:18:36;28.30;49.70
54938;DHT22;52756;52.826;6.214;2023-06-22T09:21:02;28.30;48.90
54938;DHT22;52756;52.826;6.214;2023-06-22T09:23:28;28.30;49.80
54938;DHT22;52756;52.826;6.214;2023-06-22T09:25:54;28.30;49.00
54938;DHT22;52756;52.826;6.214;2023-06-22T09:28:19;28.40;49.60
54938;DHT22;52756;52.826;6.214;2023-06-22T09:30:45;28.50;48.80
54938;DHT22;52756;52.826;6.214;2023-06-22T09:33:11;28.50;48.80
54938;DHT22;52756;52.826;6.214;2023-06-22T09:35:37;28.50;48.10
54938;DHT22;52756;52.826;6.214;2023-06-22T09:38:02;28.60;47.70
54938;DHT22;52756;52.826;6.214;2023-06-22T09:40:28;28.50;48.10
54938;DHT22;52756;52.826;6.214;2023-06-22T09:42:54;28.40;48.10
54938;DHT22;52756;52.826;6.214;2023-06-22T09:45:19;28.20;48.10
54938;DHT22;52756;52.826;6.214;2023-06-22T09:47:45;28.20;48.40
54938;DHT22;52756;52.826;6.214;2023-06-22T09:50:11;28.20;48.60
54938;DHT22;52756;52.826;6.214;2023-06-22T09:52:36;28.30;48.10
54938;DHT22;52756;52.826;6.214;2023-06-22T09:55:03;28.30;48.40
54938;DHT22;52756;52.826;6.214;2023-06-22T09:57:29;28.30;47.50
54938;DHT22;52756;52.826;6.214;2023-06-22T09:59:55;28.30;48.00
54938;DHT22;52756;52.826;6.214;2023-06-22T10:02:21;28.40;47.50
54938;DHT22;52756;52.826;6.214;2023-06-22T10:04:47;28.40;47.40
54938;DHT22;52756;52.826;6.214;2023-06-22T10:07:13;28.40;48.10
54938;DHT22;52756;52.826;6.214;2023-06-22T10:09:39;28.40;47.90
54938;DHT22;52756;52.826;6.214;2023-06-22T10:12:05;28.40;47.30
54938;DHT22;52756;52.826;6.214;2023-06-22T10:14:31;28.40;47.90
54938;DHT22;52756;52.826;6.214;2023-06-22T10:16:57;28.50;47.70
54938;DHT22;52756;52.826;6.214;2023-06-22T10:19:23;28.50;47.50
54938;DHT22;52756;52.826;6.214;2023-06-22T10:21:49;28.50;48.10
54938;DHT22;52756;52.826;6.214;2023-06-22T10:24:14;28.50;47.00
54938;DHT22;52756;52.826;6.214;2023-06-22T10:26:40;28.50;47.40
54938;DHT22;52756;52.826;6.214;2023-06-22T10:29:06;28.60;46.80
54938;DHT22;52756;52.826;6.214;2023-06-22T10:31:31;28.70;47.40
54938;DHT22;52756;52.826;6.214;2023-06-22T10:33:57;28.60;46.80
54938;DHT22;52756;52.826;6.214;2023-06-22T10:36:23;28.60;46.90
54938;DHT22;52756;52.826;6.214;2023-06-22T10:38:49;28.60;46.50
54938;DHT22;52756;52.826;6.214;2023-06-22T10:41:15;28.60;46.60
54938;DHT22;52756;52.826;6.214;2023-06-22T10:43:42;28.60;46.60
54938;DHT22;52756;52.826;6.214;2023-06-22T10:46:07;28.60;47.00
54938;DHT22;52756;52.826;6.214;2023-06-22T10:48:33;28.60;46.60
54938;DHT22;52756;52.826;6.214;2023-06-22T10:50:59;28.50;46.30
54938;DHT22;52756;52.826;6.214;2023-06-22T10:53:25;28.50;45.80
54938;DHT22;52756;52.826;6.214;2023-06-22T10:55:51;28.60;46.20
54938;DHT22;52756;52.826;6.214;2023-06-22T10:58:18;28.60;45.90
54938;DHT22;52756;52.826;6.214;2023-06-22T11:00:45;28.60;46.10
54938;DHT22;52756;52.826;6.214;2023-06-22T11:03:10;28.60;45.80
54938;DHT22;52756;52.826;6.214;2023-06-22T11:05:37;28.60;46.00
54938;DHT22;52756;52.826;6.214;2023-06-22T11:08:03;28.70;45.60
54938;DHT22;52756;52.826;6.214;2023-06-22T11:10:29;28.60;45.20
54938;DHT22;52756;52.826;6.214;2023-06-22T11:12:54;28.60;44.70
54938;DHT22;52756;52.826;6.214;2023-06-22T11:15:21;28.60;45.20
54938;DHT22;52756;52.826;6.214;2023-06-22T11:17:47;28.60;45.20
54938;DHT22;52756;52.826;6.214;2023-06-22T11:20:12;28.50;45.10
54938;DHT22;52756;52.826;6.214;2023-06-22T11:25:28;28.50;44.80
54938;DHT22;52756;52.826;6.214;2023-06-22T11:27:54;28.50;45.00
54938;DHT22;52756;52.826;6.214;2023-06-22T11:30:20;28.40;44.90
54938;DHT22;52756;52.826;6.214;2023-06-22T11:32:46;28.40;44.70
54938;DHT22;52756;52.826;6.214;2023-06-22T11:35:11;28.30;44.70
54938;DHT22;52756;52.826;6.214;2023-06-22T11:37:37;28.30;44.80
54938;DHT22;52756;52.826;6.214;2023-06-22T11:40:03;28.20;44.70
54938;DHT22;52756;52.826;6.214;2023-06-22T11:42:30;28.20;44.60
54938;DHT22;52756;52.826;6.214;2023-06-22T11:44:56;28.10;44.70
54938;DHT22;52756;52.826;6.214;2023-06-22T11:47:22;28.10;45.50
54938;DHT22;52756;52.826;6.214;2023-06-22T11:49:47;28.10;45.40
54938;DHT22;52756;52.826;6.214;2023-06-22T11:52:13;28.10;45.90
54938;DHT22;52756;52.826;6.214;2023-06-22T11:54:39;28.10;45.60
54938;DHT22;52756;52.826;6.214;2023-06-22T11:57:04;28.10;45.20
54938;DHT22;52756;52.826;6.214;2023-06-22T11:59:30;28.10;45.50
54938;DHT22;52756;52.826;6.214;2023-06-22T12:01:57;28.10;45.30
54938;DHT22;52756;52.826;6.214;2023-06-22T12:04:23;28.10;45.60
54938;DHT22;52756;52.826;6.214;2023-06-22T12:06:49;28.00;46.10
54938;DHT22;52756;52.826;6.214;2023-06-22T12:09:15;28.00;45.50
54938;DHT22;52756;52.826;6.214;2023-06-22T12:11:41;27.90;45.80
54938;DHT22;52756;52.826;6.214;2023-06-22T12:14:06;27.90;45.90
54938;DHT22;52756;52.826;6.214;2023-06-22T12:16:32;27.90;46.50
54938;DHT22;52756;52.826;6.214;2023-06-22T12:18:58;27.90;46.30
54938;DHT22;52756;52.826;6.214;2023-06-22T12:21:23;27.90;46.00
54938;DHT22;52756;52.826;6.214;2023-06-22T12:23:49;27.90;45.50
54938;DHT22;52756;52.826;6.214;2023-06-22T12:26:15;27.80;45.30
54938;DHT22;52756;52.826;6.214;2023-06-22T12:28:41;27.70;45.50
54938;DHT22;52756;52.826;6.214;2023-06-22T12:31:06;27.80;45.40
54938;DHT22;52756;52.826;6.214;2023-06-22T12:33:32;27.70;45.70
54938;DHT22;52756;52.826;6.214;2023-06-22T12:35:58;27.80;46.10
54938;DHT22;52756;52.826;6.214;2023-06-22T12:38:24;27.70;45.70
54938;DHT22;52756;52.826;6.214;2023-06-22T12:40:51;27.80;45.70
54938;DHT22;52756;52.826;6.214;2023-06-22T12:43:17;27.70;45.60
54938;DHT22;52756;52.826;6.214;2023-06-22T12:45:42;27.80;45.90
54938;DHT22;52756;52.826;6.214;2023-06-22T12:48:08;27.70;46.20
54938;DHT22;52756;52.826;6.214;2023-06-22T12:50:34;27.80;46.60
54938;DHT22;52756;52.826;6.214;2023-06-22T12:53:00;27.80;46.60
54938;DHT22;52756;52.826;6.214;2023-06-22T12:55:28;27.80;46.40
54938;DHT22;52756;52.826;6.214;2023-06-22T12:57:53;27.80;45.80
54938;DHT22;52756;52.826;6.214;2023-06-22T13:00:19;27.80;46.40
54938;DHT22;52756;52.826;6.214;2023-06-22T13:02:45;27.70;46.80
54938;DHT22;52756;52.826;6.214;2023-06-22T13:05:11;27.70;46.50
54938;DHT22;52756;52.826;6.214;2023-06-22T13:07:37;27.70;46.60
54938;DHT22;52756;52.826;6.214;2023-06-22T13:10:03;27.70;46.70
54938;DHT22;52756;52.826;6.214;2023-06-22T13:12:28;27.70;46.30
54938;DHT22;52756;52.826;6.214;2023-06-22T13:14:54;27.70;45.80
54938;DHT22;52756;52.826;6.214;2023-06-22T13:17:20;27.70;45.80
54938;DHT22;52756;52.826;6.214;2023-06-22T13:19:46;27.60;46.00
54938;DHT22;52756;52.826;6.214;2023-06-22T13:22:45;27.60;46.00
54938;DHT22;52756;52.826;6.214;2023-06-22T13:25:10;27.60;45.90
54938;DHT22;52756;52.826;6.214;2023-06-22T13:27:41;27.50;45.70
54938;DHT22;52756;52.826;6.214;2023-06-22T13:30:08;27.50;46.00
54938;DHT22;52756;52.826;6.214;2023-06-22T13:32:34;27.40;46.20
54938;DHT22;52756;52.826;6.214;2023-06-22T13:34:59;27.30;46.80
54938;DHT22;52756;52.826;6.214;2023-06-22T13:37:26;27.30;46.90
54938;DHT22;52756;52.826;6.214;2023-06-22T13:39:52;27.30;47.00
54938;DHT22;52756;52.826;6.214;2023-06-22T13:42:18;27.20;46.90
54938;DHT22;52756;52.826;6.214;2023-06-22T13:44:44;27.10;47.80
54938;DHT22;52756;52.826;6.214;2023-06-22T13:47:09;27.10;48.70
54938;DHT22;52756;52.826;6.214;2023-06-22T13:49:35;27.00;49.30
54938;DHT22;52756;52.826;6.214;2023-06-22T13:52:01;27.00;50.00
54938;DHT22;52756;52.826;6.214;2023-06-22T13:54:28;26.90;49.90
54938;DHT22;52756;52.826;6.214;2023-06-22T13:56:54;26.80;50.20
54938;DHT22;52756;52.826;6.214;2023-06-22T13:59:20;26.70;50.40
54938;DHT22;52756;52.826;6.214;2023-06-22T14:01:46;26.70;50.40
54938;DHT22;52756;52.826;6.214;2023-06-22T14:04:12;26.60;50.80
54938;DHT22;52756;52.826;6.214;2023-06-22T14:06:38;26.60;51.20
54938;DHT22;52756;52.826;6.214;2023-06-22T14:09:04;26.50;51.40
54938;DHT22;52756;52.826;6.214;2023-06-22T14:11:29;26.50;51.70
54938;DHT22;52756;52.826;6.214;2023-06-22T14:13:55;26.50;51.50
54938;DHT22;52756;52.826;6.214;2023-06-22T14:16:21;26.50;51.40
54938;DHT22;52756;52.826;6.214;2023-06-22T14:18:46;26.40;51.30
54938;DHT22;52756;52.826;6.214;2023-06-22T14:21:12;26.30;51.80
54938;DHT22;52756;52.826;6.214;2023-06-22T14:23:39;26.30;51.90
54938;DHT22;52756;52.826;6.214;2023-06-22T14:26:05;26.20;51.80
54938;DHT22;52756;52.826;6.214;2023-06-22T14:28:30;26.20;52.60
54938;DHT22;52756;52.826;6.214;2023-06-22T14:30:56;26.10;52.50
54938;DHT22;52756;52.826;6.214;2023-06-22T14:33:22;26.10;52.80
54938;DHT22;52756;52.826;6.214;2023-06-22T14:35:48;26.10;53.20
54938;DHT22;52756;52.826;6.214;2023-06-22T14:38:14;26.00;52.90
54938;DHT22;52756;52.826;6.214;2023-06-22T14:40:40;25.90;53.50
54938;DHT22;52756;52.826;6.214;2023-06-22T14:43:05;25.90;53.50
54938;DHT22;52756;52.826;6.214;2023-06-22T14:45:31;25.80;53.70
54938;DHT22;52756;52.826;6.214;2023-06-22T14:47:57;25.70;53.90
54938;DHT22;52756;52.826;6.214;2023-06-22T14:50:23;25.70;54.20
54938;DHT22;52756;52.826;6.214;2023-06-22T14:52:48;25.70;54.30
54938;DHT22;52756;52.826;6.214;2023-06-22T14:55:14;25.70;54.50
54938;DHT22;52756;52.826;6.214;2023-06-22T14:57:40;25.60;54.70
54938;DHT22;52756;52.826;6.214;2023-06-22T15:00:06;25.50;55.30
54938;DHT22;52756;52.826;6.214;2023-06-22T15:02:32;25.40;55.30
54938;DHT22;52756;52.826;6.214;2023-06-22T15:04:58;25.40;55.60
54938;DHT22;52756;52.826;6.214;2023-06-22T15:07:23;25.30;56.10
54938;DHT22;52756;52.826;6.214;2023-06-22T15:09:49;25.30;56.50
54938;DHT22;52756;52.826;6.214;2023-06-22T15:12:15;25.20;56.80
54938;DHT22;52756;52.826;6.214;2023-06-22T15:14:41;25.10;57.50
54938;DHT22;52756;52.826;6.214;2023-06-22T15:17:08;25.10;57.60
54938;DHT22;52756;52.826;6.214;2023-06-22T15:19:39;25.00;58.00
54938;DHT22;52756;52.826;6.214;2023-06-22T15:22:06;24.90;58.20
54938;DHT22;52756;52.826;6.214;2023-06-22T15:24:33;24.80;58.80
54938;DHT22;52756;52.826;6.214;2023-06-22T15:26:59;24.80;59.20
54938;DHT22;52756;52.826;6.214;2023-06-22T15:29:24;24.70;59.60
54938;DHT22;52756;52.826;6.214;2023-06-22T15:31:52;24.60;59.80